Time;durP1;ratioP1;P1;durP2;ratioP2;P2;SDS_P1;SDS_P2;PMS_P1;PMS_P2;Temp;Humidity;BMP_temperature;BMP_pressure;BME280_temperature;BME280_humidity;BME280_pressure;Samples;Min_cycle;Max_cycle;Signal;HPM_P1;HPM_P2
2021/06/15 00:00:16;;;;;;;1999.90;999.90;;;;;;;13.54;79.04;98618.44;5077382;28;20057;-64
2021/06/15 00:02:42;;;;;;;1999.90;999.90;;;;;;;13.87;78.23;98618.50;5089855;28;20476;-64
2021/06/15 00:05:11;;;;;;;1999.90;999.90;;;;;;;13.83;77.99;98622.28;5090037;28;20097;-64
2021/06/15 00:07:39;;;;;;;1999.90;999.90;;;;;;;13.84;78.39;98616.38;5089465;28;20495;-64
2021/06/15 00:10:12;;;;;;;1999.90;999.90;;;;;;;13.72;78.73;98621.88;5088843;28;20052;-64
2021/06/15 00:12:40;;;;;;;1999.90;999.90;;;;;;;13.62;78.62;98614.78;5084131;28;20048;-64
2021/06/15 00:15:08;;;;;;;1999.90;999.90;;;;;;;13.97;77.99;98619.22;5089087;28;20048;-64
2021/06/15 00:17:35;;;;;;;1999.90;999.90;;;;;;;14.00;78.02;98611.00;5079152;28;20049;-64
2021/06/15 00:20:04;;;;;;;1999.90;999.90;;;;;;;14.22;77.19;98615.34;5087171;28;20052;-64
2021/06/15 00:22:31;;;;;;;1999.90;999.90;;;;;;;14.26;76.44;98619.09;5082405;28;20104;-64
2021/06/15 00:24:58;;;;;;;1999.90;999.90;;;;;;;14.30;76.04;98621.97;5091062;28;20561;-64
2021/06/15 00:27:24;;;;;;;1999.90;999.90;;;;;;;14.17;75.90;98617.53;5087508;28;20052;-64
2021/06/15 00:29:51;;;;;;;1999.90;999.90;;;;;;;13.66;77.75;98618.50;5077668;28;20056;-64
2021/06/15 00:32:18;;;;;;;1999.90;999.90;;;;;;;13.77;77.90;98612.53;5087022;28;20048;-64
2021/06/15 00:34:45;;;;;;;1999.90;999.90;;;;;;;13.56;78.94;98611.41;5087867;28;20156;-63
2021/06/15 00:37:12;;;;;;;1999.90;999.90;;;;;;;13.78;78.52;98608.59;5091829;28;20047;-64
2021/06/15 00:39:39;;;;;;;1999.90;999.90;;;;;;;14.00;78.17;98602.66;5090794;28;20060;-64
2021/06/15 00:42:06;;;;;;;1999.90;999.90;;;;;;;13.99;78.05;98597.44;5090118;28;20040;-64
2021/06/15 00:44:34;;;;;;;1999.90;999.90;;;;;;;13.62;79.16;98598.13;5087601;28;20518;-64
2021/06/15 00:47:02;;;;;;;1999.90;999.90;;;;;;;13.56;79.15;98596.66;5081007;28;20105;-65
2021/06/15 00:49:34;;;;;;;1999.90;999.90;;;;;;;13.61;79.55;98599.25;5084640;28;20127;-65
2021/06/15 00:52:03;;;;;;;1999.90;999.90;;;;;;;13.66;79.13;98590.72;5084291;28;20403;-65
2021/06/15 00:54:30;;;;;;;1999.90;999.90;;;;;;;13.66;79.63;98590.72;5082849;28;20078;-65
2021/06/15 00:56:56;;;;;;;1999.90;999.90;;;;;;;13.45;80.16;98584.38;5094574;28;20044;-65
2021/06/15 00:59:23;;;;;;;1999.90;999.90;;;;;;;13.54;80.09;98576.75;5093388;28;20391;-65
2021/06/15 01:01:49;;;;;;;1999.90;999.90;;;;;;;13.51;80.16;98583.81;5093680;28;20352;-64
2021/06/15 01:04:17;;;;;;;1999.90;999.90;;;;;;;13.31;80.46;98579.84;5093601;28;20425;-65
2021/06/15 01:07:17;;;;;;;1999.90;999.90;;;;;;;13.35;80.35;98586.41;5085839;28;20510;-65
2021/06/15 01:09:54;;;;;;;1999.90;999.90;;;;;;;13.42;80.41;98585.03;5067245;28;20044;-65
2021/06/15 01:12:26;;;;;;;1999.90;999.90;;;;;;;13.49;80.30;98574.22;5081293;28;20371;-64
2021/06/15 01:15:06;;;;;;;1999.90;999.90;;;;;;;13.51;80.25;98575.47;5092737;28;20136;-65
2021/06/15 01:17:45;;;;;;;1999.90;999.90;;;;;;;13.56;79.48;98575.28;5085856;28;20395;-65
2021/06/15 01:20:23;;;;;;;1999.90;999.90;;;;;;;13.54;79.87;98569.22;5074195;28;20097;-64
2021/06/15 01:22:50;;;;;;;1999.90;999.90;;;;;;;13.32;80.27;98567.63;5083756;28;20056;-65
2021/06/15 01:25:27;;;;;;;1999.90;999.90;;;;;;;13.43;80.44;98575.53;5091200;28;20043;-65
2021/06/15 01:28:01;;;;;;;1999.90;999.90;;;;;;;13.45;80.34;98564.91;5087196;28;20044;-65
2021/06/15 01:30:43;;;;;;;1999.90;999.90;;;;;;;13.23;81.00;98566.84;5083382;28;20101;-65
2021/06/15 01:33:13;;;;;;;1999.90;999.90;;;;;;;13.33;80.86;98558.09;5086609;28;20048;-65
2021/06/15 01:35:40;;;;;;;1999.90;999.90;;;;;;;13.40;80.54;98565.94;5084701;28;20359;-65
2021/06/15 01:38:12;;;;;;;1999.90;999.90;;;;;;;13.30;81.00;98556.00;5086905;28;20399;-64
2021/06/15 01:40:41;;;;;;;1999.90;999.90;;;;;;;13.19;81.05;98560.34;5085435;28;20048;-64
2021/06/15 01:43:16;;;;;;;1999.90;999.90;;;;;;;13.32;80.47;98558.44;5087473;28;20048;-65
2021/06/15 01:45:47;;;;;;;1999.90;999.90;;;;;;;12.90;83.13;98563.97;5092800;28;20080;-65
2021/06/15 01:48:17;;;;;;;1999.90;999.90;;;;;;;13.09;82.20;98550.47;5093681;28;20044;-65
2021/06/15 01:50:46;;;;;;;1999.90;999.90;;;;;;;13.20;81.95;98545.31;5089654;28;20097;-64
2021/06/15 01:53:16;;;;;;;1999.90;999.90;;;;;;;13.11;81.81;98539.81;5082566;28;20093;-64
2021/06/15 01:55:52;;;;;;;1999.90;999.90;;;;;;;13.17;81.63;98545.97;5092495;28;20048;-65
2021/06/15 01:58:22;;;;;;;1999.90;999.90;;;;;;;13.26;81.29;98545.91;5091986;28;20048;-64
2021/06/15 02:00:51;;;;;;;1999.90;999.90;;;;;;;13.19;81.28;98547.28;5091341;28;20667;-65
2021/06/15 02:03:18;;;;;;;1999.90;999.90;;;;;;;13.08;81.34;98546.03;5092058;28;20054;-65
2021/06/15 02:05:54;;;;;;;1999.90;999.90;;;;;;;13.28;80.73;98552.78;5086132;28;20048;-65
2021/06/15 02:08:30;;;;;;;1999.90;999.90;;;;;;;13.48;79.80;98548.38;5083170;28;20235;-65
2021/06/15 02:10:59;;;;;;;1999.90;999.90;;;;;;;13.57;78.94;98548.31;5090750;28;20056;-65
2021/06/15 02:13:29;;;;;;;1999.90;999.90;;;;;;;13.16;79.82;98545.19;5083999;28;20097;-65
2021/06/15 02:15:59;;;;;;;1999.90;999.90;;;;;;;13.08;80.57;98548.03;5083726;28;20441;-65
2021/06/15 02:18:27;;;;;;;1999.90;999.90;;;;;;;12.97;81.26;98542.88;5091843;28;20102;-64
2021/06/15 02:20:56;;;;;;;1999.90;999.90;;;;;;;13.01;81.70;98529.09;5083010;28;20094;-65
2021/06/15 02:23:24;;;;;;;1999.90;999.90;;;;;;;12.89;82.03;98532.63;5086043;28;20387;-65
2021/06/15 02:25:55;;;;;;;1999.90;999.90;;;;;;;12.79;81.80;98533.84;5085679;28;23141;-65
2021/06/15 02:28:22;;;;;;;1999.90;999.90;;;;;;;12.68;82.98;98536.19;5091448;28;20353;-64
2021/06/15 02:30:49;;;;;;;1999.90;999.90;;;;;;;12.72;82.37;98535.53;5084237;28;20059;-64
2021/06/15 02:33:26;;;;;;;1999.90;999.90;;;;;;;12.83;81.96;98537.56;5078288;28;20334;-65
2021/06/15 02:36:05;;;;;;;1999.90;999.90;;;;;;;12.99;81.18;98535.00;5082777;28;20044;-65
2021/06/15 02:38:37;;;;;;;1999.90;999.90;;;;;;;12.79;81.07;98536.63;5084845;28;20449;-65
2021/06/15 02:41:08;;;;;;;1999.90;999.90;;;;;;;12.74;82.27;98530.44;5086351;28;20052;-65
2021/06/15 02:43:36;;;;;;;1999.90;999.90;;;;;;;12.83;82.02;98537.56;5091415;28;20117;-65
2021/06/15 02:46:05;;;;;;;1999.90;999.90;;;;;;;12.74;82.14;98545.13;5084122;28;20094;-64
2021/06/15 02:48:35;;;;;;;1999.90;999.90;;;;;;;12.97;81.79;98556.75;5083362;28;20056;-64
2021/06/15 02:51:04;;;;;;;1999.90;999.90;;;;;;;13.10;81.27;98551.25;5074602;28;20052;-64
2021/06/15 02:53:41;;;;;;;1999.90;999.90;;;;;;;13.16;80.68;98561.00;5092840;28;20345;-64
2021/06/15 02:56:15;;;;;;;1999.90;999.90;;;;;;;13.23;80.46;98554.94;5088332;28;20109;-64
2021/06/15 02:58:42;;;;;;;1999.90;999.90;;;;;;;12.84;80.77;98560.56;5077948;28;20047;-64
2021/06/15 03:01:08;;;;;;;1999.90;999.90;;;;;;;12.60;82.03;98556.47;5092578;28;20040;-65
2021/06/15 03:03:36;;;;;;;1999.90;999.90;;;;;;;12.50;82.46;98549.34;5087769;28;20071;-65
2021/06/15 03:06:07;;;;;;;1999.90;999.90;;;;;;;12.63;82.60;98550.25;5080918;28;20044;-64
2021/06/15 03:08:35;;;;;;;1999.90;999.90;;;;;;;12.82;82.21;98555.38;5092123;28;20077;-64
2021/06/15 03:11:03;;;;;;;1999.90;999.90;;;;;;;12.95;81.85;98555.44;5082882;28;20095;-64
2021/06/15 03:13:30;;;;;;;1999.90;999.90;;;;;;;12.99;81.94;98551.66;5085475;28;20426;-65
2021/06/15 03:15:59;;;;;;;1999.90;999.90;;;;;;;13.07;81.89;98563.03;5093439;28;20096;-65
2021/06/15 03:18:44;;;;;;;1999.90;999.90;;;;;;;12.98;83.03;98558.38;5091285;28;20246;-65
2021/06/15 03:21:13;;;;;;;1999.90;999.90;;;;;;;12.88;83.67;98560.72;5086902;28;20493;-65
2021/06/15 03:23:57;;;;;;;1999.90;999.90;;;;;;;12.93;83.70;98564.09;5073009;28;20052;-65
2021/06/15 03:26:40;;;;;;;1999.90;999.90;;;;;;;13.06;83.81;98567.00;5082541;28;20448;-64
2021/06/15 03:29:14;;;;;;;1999.90;999.90;;;;;;;13.02;84.50;98564.84;5085268;28;20052;-65
2021/06/15 03:31:43;;;;;;;1999.90;999.90;;;;;;;13.42;83.64;98554.50;5080130;28;20044;-64
2021/06/15 03:34:14;;;;;;;1999.90;999.90;;;;;;;13.62;82.82;98556.44;5091212;28;20059;-64
2021/06/15 03:36:43;;;;;;;1999.90;999.90;;;;;;;13.77;83.02;98545.81;5083419;28;20065;-65
2021/06/15 03:39:15;;;;;;;1999.90;999.90;;;;;;;14.51;80.99;98554.31;5084350;28;20052;-64
2021/06/15 03:41:42;;;;;;;1999.90;999.90;;;;;;;14.95;78.24;98546.22;5087807;28;20040;-64
2021/06/15 03:44:09;;;;;;;1999.90;999.90;;;;;;;15.58;76.54;98547.69;5092106;28;20048;-64
2021/06/15 03:46:39;;;;;;;1999.90;999.90;;;;;;;16.06;74.62;98553.41;5088892;28;20104;-65
2021/06/15 03:49:10;;;;;;;1999.90;999.90;;;;;;;16.53;72.22;98559.00;5084476;28;20049;-65
2021/06/15 03:51:41;;;;;;;1999.90;999.90;;;;;;;16.84;71.04;98557.38;5093653;28;20105;-65
2021/06/15 03:54:09;;;;;;;1999.90;999.90;;;;;;;16.88;70.09;98552.72;5090570;28;20433;-65
2021/06/15 03:56:42;;;;;;;1999.90;999.90;;;;;;;17.28;68.90;98552.78;5083583;28;20433;-65
2021/06/15 03:59:12;;;;;;;1999.90;999.90;;;;;;;17.49;68.35;98549.66;5081656;28;20049;-64
2021/06/15 04:01:41;;;;;;;1999.90;999.90;;;;;;;17.84;67.48;98549.56;5086279;28;20044;-65
2021/06/15 04:04:10;;;;;;;1999.90;999.90;;;;;;;17.84;66.88;98548.78;5092238;28;20048;-65
2021/06/15 04:06:51;;;;;;;1999.90;999.90;;;;;;;18.16;67.17;98554.97;5092601;28;20052;-65
2021/06/15 04:09:25;;;;;;;1999.90;999.90;;;;;;;18.46;65.36;98545.94;5091324;28;20044;-65
2021/06/15 04:11:58;;;;;;;1999.90;999.90;;;;;;;18.77;64.20;98549.63;5091901;28;20044;-65
2021/06/15 04:14:27;;;;;;;1999.90;999.90;;;;;;;18.89;63.22;98546.66;5077108;28;20077;-65
2021/06/15 04:16:56;;;;;;;1999.90;999.90;;;;;;;18.93;62.89;98550.31;5093470;28;20048;-65
2021/06/15 04:19:32;;;;;;;1999.90;999.90;;;;;;;18.73;63.27;98545.97;5086910;28;20425;-65
2021/06/15 04:22:00;;;;;;;1999.90;999.90;;;;;;;19.27;62.47;98547.59;5084329;28;20044;-65
2021/06/15 04:24:28;;;;;;;1999.90;999.90;;;;;;;18.84;64.18;98552.53;5085415;28;20040;-65
2021/06/15 04:27:00;;;;;;;1999.90;999.90;;;;;;;19.06;61.43;98550.09;5095305;28;20109;-66
2021/06/15 04:29:27;;;;;;;1999.90;999.90;;;;;;;19.35;61.02;98554.94;5093733;28;20117;-65
2021/06/15 04:31:59;;;;;;;1999.90;999.90;;;;;;;19.55;60.98;98557.59;5084627;28;20437;-65
2021/06/15 04:34:27;;;;;;;1999.90;999.90;;;;;;;19.40;60.02;98561.38;5090959;28;20037;-65
2021/06/15 04:37:01;;;;;;;1999.90;999.90;;;;;;;19.69;60.11;98562.56;5092036;28;20080;-64
2021/06/15 04:39:42;;;;;;;1999.90;999.90;;;;;;;19.35;60.62;98566.16;5090763;28;20425;-64
2021/06/15 04:42:15;;;;;;;1999.90;999.90;;;;;;;19.11;61.20;98566.59;5088011;28;20139;-64
2021/06/15 04:44:45;;;;;;;1999.90;999.90;;;;;;;19.09;61.23;98560.56;5084900;28;20079;-64
2021/06/15 04:47:18;;;;;;;1999.90;999.90;;;;;;;19.12;61.20;98562.59;5084159;28;20052;-65
2021/06/15 04:49:53;;;;;;;1999.90;999.90;;;;;;;19.32;61.43;98561.31;5085894;28;20389;-64
2021/06/15 04:52:25;;;;;;;1999.90;999.90;;;;;;;19.06;60.33;98564.13;5086440;28;20102;-64
2021/06/15 04:54:53;;;;;;;1999.90;999.90;;;;;;;18.90;61.61;98570.66;5094440;28;20044;-64
2021/06/15 04:57:24;;;;;;;1999.90;999.90;;;;;;;19.11;60.90;98575.78;5083260;28;20507;-64
2021/06/15 04:59:53;;;;;;;1999.90;999.90;;;;;;;19.10;60.52;98576.16;5090882;28;20048;-64
2021/06/15 05:02:23;;;;;;;1999.90;999.90;;;;;;;19.34;59.83;98578.53;5092568;28;20315;-64
2021/06/15 05:04:50;;;;;;;1999.90;999.90;;;;;;;19.70;59.25;98570.59;5095287;28;20076;-64
2021/06/15 05:07:19;;;;;;;1999.90;999.90;;;;;;;19.88;58.38;98575.66;5090564;28;20056;-65
2021/06/15 05:09:52;;;;;;;1999.90;999.90;;;;;;;20.21;59.25;98576.81;5090371;28;20059;-65
2021/06/15 05:12:21;;;;;;;1999.90;999.90;;;;;;;20.24;58.35;98567.63;5092865;28;20044;-65
2021/06/15 05:14:49;;;;;;;1999.90;999.90;;;;;;;20.21;58.49;98572.00;5085999;28;20123;-64
2021/06/15 05:17:20;;;;;;;1999.90;999.90;;;;;;;20.11;60.15;98574.69;5088693;28;20047;-65
2021/06/15 05:19:47;;;;;;;1999.90;999.90;;;;;;;20.10;59.88;98573.06;5077540;28;20080;-64
2021/06/15 05:22:25;;;;;;;1999.90;999.90;;;;;;;19.96;60.72;98566.09;5091737;28;20047;-64
2021/06/15 05:24:55;;;;;;;1999.90;999.90;;;;;;;20.10;60.66;98575.88;5089243;28;20190;-64
2021/06/15 05:27:27;;;;;;;1999.90;999.90;;;;;;;20.54;60.00;98572.31;5084927;28;20048;-64
2021/06/15 05:29:54;;;;;;;1999.90;999.90;;;;;;;19.62;61.50;98571.72;5093343;28;20105;-65
2021/06/15 05:32:25;;;;;;;1999.90;999.90;;;;;;;19.56;61.60;98586.44;5089923;28;20040;-65
2021/06/15 05:34:52;;;;;;;1999.90;999.90;;;;;;;19.86;61.63;98575.22;5081450;28;20036;-65
2021/06/15 05:37:19;;;;;;;1999.90;999.90;;;;;;;19.70;62.43;98586.63;5088394;28;20041;-65
2021/06/15 05:39:46;;;;;;;1999.90;999.90;;;;;;;20.20;60.70;98580.81;5086976;28;20040;-65
2021/06/15 05:42:13;;;;;;;1999.90;999.90;;;;;;;20.60;59.62;98582.00;5079598;28;20056;-64
2021/06/15 05:44:41;;;;;;;1999.90;999.90;;;;;;;20.84;58.29;98575.03;5094576;28;20446;-65
2021/06/15 05:47:09;;;;;;;1999.90;999.90;;;;;;;21.24;56.54;98583.72;5089066;28;20052;-65
2021/06/15 05:49:36;;;;;;;1999.90;999.90;;;;;;;20.33;59.90;98579.34;5084814;28;20048;-64
2021/06/15 05:52:08;;;;;;;1999.90;999.90;;;;;;;20.33;60.90;98578.53;5093867;28;20056;-64
2021/06/15 05:54:35;;;;;;;1999.90;999.90;;;;;;;20.31;60.06;98590.16;5093340;28;20040;-64
2021/06/15 05:57:03;;;;;;;1999.90;999.90;;;;;;;20.83;59.02;98592.28;5092353;28;20375;-64
2021/06/15 05:59:30;;;;;;;1999.90;999.90;;;;;;;21.29;56.92;98594.63;5082223;28;20055;-65
2021/06/15 06:01:57;;;;;;;1999.90;999.90;;;;;;;21.70;56.24;98602.88;5087751;28;20384;-65
2021/06/15 06:04:30;;;;;;;1999.90;999.90;;;;;;;21.98;55.10;98612.66;5086912;28;20112;-65
2021/06/15 06:09:43;;;;;;;1999.90;999.90;;;;;;;21.97;55.32;98611.03;5085183;28;20113;-65
2021/06/15 06:12:10;;;;;;;1999.90;999.90;;;;;;;22.21;54.26;98608.72;5086226;28;20044;-65
2021/06/15 06:14:37;;;;;;;1999.90;999.90;;;;;;;21.71;55.52;98612.97;5079250;28;20095;-65
2021/06/15 06:17:07;;;;;;;1999.90;999.90;;;;;;;21.33;58.02;98606.66;5094492;28;20533;-65
2021/06/15 06:19:34;;;;;;;1999.90;999.90;;;;;;;21.99;54.90;98615.09;5091356;28;20051;-65
2021/06/15 06:22:01;;;;;;;1999.90;999.90;;;;;;;22.36;54.42;98616.03;5090290;28;20052;-65
2021/06/15 06:24:28;;;;;;;1999.90;999.90;;;;;;;22.81;53.87;98619.31;5094943;28;20044;-65
2021/06/15 06:26:55;;;;;;;1999.90;999.90;;;;;;;23.04;53.31;98620.94;5086307;28;20441;-65
2021/06/15 06:29:22;;;;;;;1999.90;999.90;;;;;;;22.89;51.43;98624.97;5079769;28;20120;-65
2021/06/15 06:31:49;;;;;;;1999.90;999.90;;;;;;;22.98;51.12;98628.19;5092823;28;20047;-65
2021/06/15 06:34:16;;;;;;;1999.90;999.90;;;;;;;22.71;52.78;98627.78;5089944;28;20044;-65
2021/06/15 06:36:42;;;;;;;1999.90;999.90;;;;;;;23.32;50.37;98619.34;5078692;28;20060;-65
2021/06/15 06:39:10;;;;;;;1999.90;999.90;;;;;;;23.29;51.24;98625.78;5093958;28;20212;-65
2021/06/15 06:41:37;;;;;;;1999.90;999.90;;;;;;;23.06;50.08;98624.16;5091353;28;20098;-65
2021/06/15 06:44:04;;;;;;;1999.90;999.90;;;;;;;23.68;50.65;98625.69;5092027;28;20062;-65
2021/06/15 06:46:31;;;;;;;1999.90;999.90;;;;;;;23.59;52.07;98624.53;5091646;28;20044;-65
2021/06/15 06:48:59;;;;;;;1999.90;999.90;;;;;;;24.13;48.68;98624.34;5093237;28;20345;-65
2021/06/15 06:51:25;;;;;;;1999.90;999.90;;;;;;;22.84;49.27;98624.16;5086860;28;20048;-65
2021/06/15 06:53:52;;;;;;;1999.90;999.90;;;;;;;23.71;46.77;98621.25;5081238;28;20048;-65
2021/06/15 06:56:19;;;;;;;1999.90;999.90;;;;;;;24.03;45.46;98614.72;5090945;28;20097;-65
2021/06/15 06:58:47;;;;;;;1999.90;999.90;;;;;;;23.30;47.15;98616.09;5080703;28;20048;-65
2021/06/15 07:01:14;;;;;;;1999.90;999.90;;;;;;;23.81;47.81;98611.16;5079555;28;20052;-65
2021/06/15 07:03:41;;;;;;;1999.90;999.90;;;;;;;24.20;46.90;98610.97;5087333;28;20071;-65
2021/06/15 07:06:08;;;;;;;1999.90;999.90;;;;;;;24.63;46.17;98620.47;5085219;28;20055;-66
2021/06/15 07:08:35;;;;;;;1999.90;999.90;;;;;;;23.30;46.75;98608.47;5088469;28;20078;-64
2021/06/15 07:11:01;;;;;;;1999.90;999.90;;;;;;;23.94;49.23;98615.16;5086811;28;20551;-65
2021/06/15 07:13:28;;;;;;;1999.90;999.90;;;;;;;23.52;45.58;98612.03;5086697;28;20044;-64
2021/06/15 07:15:55;;;;;;;1999.90;999.90;;;;;;;24.26;46.96;98614.97;5077797;28;20121;-65
2021/06/15 07:18:21;;;;;;;1999.90;999.90;;;;;;;24.86;45.10;98620.69;5087712;28;20289;-65
2021/06/15 07:20:48;;;;;;;1999.90;999.90;;;;;;;24.77;45.30;98612.69;5086534;28;20089;-65
2021/06/15 07:23:15;;;;;;;1999.90;999.90;;;;;;;24.96;43.85;98616.16;5077020;28;20052;-66
2021/06/15 07:25:42;;;;;;;1999.90;999.90;;;;;;;23.91;46.72;98618.81;5083034;28;20041;-66
2021/06/15 07:28:09;;;;;;;1999.90;999.90;;;;;;;24.33;44.33;98624.66;5082359;28;20387;-63
2021/06/15 07:30:36;;;;;;;1999.90;999.90;;;;;;;25.00;43.27;98627.47;5077296;28;20433;-64
2021/06/15 07:33:12;;;;;;;1999.90;999.90;;;;;;;24.49;45.26;98615.66;5082204;28;20135;-64
2021/06/15 07:35:39;;;;;;;1999.90;999.90;;;;;;;25.22;44.20;98622.41;5084515;28;20428;-64
2021/06/15 08:00:39;;;;;;;1999.90;999.90;;;;;;;25.73;41.36;98600.09;5096354;28;20048;-65
2021/06/15 08:03:08;;;;;;;1999.90;999.90;;;;;;;26.13;38.17;98606.09;5096253;28;20490;-65
2021/06/15 08:05:34;;;;;;;1999.90;999.90;;;;;;;26.82;37.62;98611.59;5094234;28;20117;-65
2021/06/15 08:08:01;;;;;;;1999.90;999.90;;;;;;;26.74;37.05;98616.59;5095317;28;20044;-65
2021/06/15 08:10:28;;;;;;;1999.90;999.90;;;;;;;26.84;38.08;98604.28;5078582;28;20102;-65
2021/06/15 08:12:57;;;;;;;1999.90;999.90;;;;;;;26.97;38.28;98612.16;5095839;28;20047;-65
2021/06/15 08:15:25;;;;;;;1999.90;999.90;;;;;;;26.43;37.61;98607.31;5089620;28;20052;-65
2021/06/15 08:17:51;;;;;;;1999.90;999.90;;;;;;;25.97;37.90;98610.28;5092165;28;20501;-66
2021/06/15 08:20:18;;;;;;;1999.90;999.90;;;;;;;24.68;39.06;98603.06;5090152;28;20054;-65
2021/06/15 08:22:48;;;;;;;1999.90;999.90;;;;;;;25.27;38.96;98600.13;5095255;28;20055;-66
2021/06/15 08:25:15;;;;;;;1999.90;999.90;;;;;;;26.32;37.36;98608.25;5077714;28;20071;-66
2021/06/15 08:27:42;;;;;;;1999.90;999.90;;;;;;;25.73;39.32;98605.75;5087091;28;20048;-66
2021/06/15 08:30:14;;;;;;;1999.90;999.90;;;;;;;26.93;38.32;98611.41;5088809;28;20375;-63
2021/06/15 08:32:40;;;;;;;1999.90;999.90;;;;;;;26.59;36.90;98610.31;5095818;28;20117;-65
2021/06/15 08:35:10;;;;;;;1999.90;999.90;;;;;;;26.47;35.49;98613.69;5096510;28;20090;-65
2021/06/15 08:37:37;;;;;;;1999.90;999.90;;;;;;;27.01;34.47;98610.06;5095661;28;20047;-65
2021/06/15 08:40:06;;;;;;;1999.90;999.90;;;;;;;27.14;33.32;98601.72;5089720;28;20044;-65
2021/06/15 08:42:33;;;;;;;1999.90;999.90;;;;;;;27.36;33.89;98600.16;5090001;28;20548;-65
2021/06/15 08:45:00;;;;;;;1999.90;999.90;;;;;;;28.02;33.49;98600.50;5092953;28;20043;-66
2021/06/15 08:47:27;;;;;;;1999.90;999.90;;;;;;;28.36;30.03;98599.38;5085010;28;20040;-66
2021/06/15 08:49:54;;;;;;;1999.90;999.90;;;;;;;28.06;31.81;98606.09;5092878;28;20052;-66
2021/06/15 08:52:26;;;;;;;1999.90;999.90;;;;;;;27.64;33.50;98600.84;5094547;28;20321;-66
2021/06/15 08:54:54;;;;;;;1999.90;999.90;;;;;;;27.79;33.92;98592.03;5090613;28;20047;-66
2021/06/15 08:57:23;;;;;;;1999.90;999.90;;;;;;;28.20;35.53;98599.34;5093110;28;20048;-66
2021/06/15 08:59:50;;;;;;;1999.90;999.90;;;;;;;28.51;33.75;98591.31;5087601;28;20052;-66
2021/06/15 09:02:16;;;;;;;1999.90;999.90;;;;;;;28.72;34.72;98601.41;5082936;28;20048;-66
2021/06/15 09:04:44;;;;;;;1999.90;999.90;;;;;;;28.46;32.29;98597.50;5082803;28;20044;-66
2021/06/15 09:07:11;;;;;;;1999.90;999.90;;;;;;;28.22;33.13;98594.78;5094053;28;20048;-66
2021/06/15 09:09:43;;;;;;;1999.90;999.90;;;;;;;28.33;31.87;98594.56;5093511;28;20039;-66
2021/06/15 09:12:11;;;;;;;1999.90;999.90;;;;;;;28.05;35.58;98593.94;5087037;28;20053;-66
2021/06/15 09:14:40;;;;;;;1999.90;999.90;;;;;;;28.44;33.72;98597.16;5094803;28;20050;-66
2021/06/15 09:17:31;;;;;;;1999.90;999.90;;;;;;;27.59;32.26;98590.00;5095496;28;20051;-66
2021/06/15 09:20:16;;;;;;;1999.90;999.90;;;;;;;27.15;37.29;98594.81;5090778;28;20056;-66
2021/06/15 09:22:43;;;;;;;1999.90;999.90;;;;;;;27.61;32.50;98592.41;5093067;28;20133;-66
2021/06/15 09:25:15;;;;;;;1999.90;999.90;;;;;;;28.40;32.03;98590.75;5091165;28;20099;-66
2021/06/15 09:27:42;;;;;;;1999.90;999.90;;;;;;;28.42;33.19;98591.91;5092669;28;20374;-66
2021/06/15 09:30:12;;;;;;;1999.90;999.90;;;;;;;27.90;33.49;98586.94;5080336;28;20040;-65
2021/06/15 09:32:45;;;;;;;1999.90;999.90;;;;;;;27.64;32.34;98575.28;5086197;28;20052;-64
2021/06/15 09:35:17;;;;;;;1999.90;999.90;;;;;;;28.66;33.79;98576.78;5084074;28;20450;-64
2021/06/15 09:37:44;;;;;;;1999.90;999.90;;;;;;;28.26;30.10;98586.19;5081408;28;20052;-65
2021/06/15 09:40:18;;;;;;;1999.90;999.90;;;;;;;28.05;32.33;98567.59;5086566;28;20041;-65
2021/06/15 09:42:51;;;;;;;1999.90;999.90;;;;;;;28.55;33.05;98568.47;5084650;28;20052;-65
2021/06/15 09:45:23;;;;;;;1999.90;999.90;;;;;;;28.67;34.12;98576.31;5076608;28;20105;-66
2021/06/15 09:47:51;;;;;;;1999.90;999.90;;;;;;;29.04;31.70;98571.34;5084615;28;20058;-64
2021/06/15 09:50:23;;;;;;;1999.90;999.90;;;;;;;29.45;32.03;98572.72;5091923;28;20044;-65
2021/06/15 09:52:49;;;;;;;;;;;;;;;29.72;31.68;98565.09;5093444;28;20040;-65
2021/06/15 09:55:17;;;;;;;1999.90;999.90;;;;;;;28.98;32.10;98573.13;5082334;28;19966;-65
2021/06/15 09:57:47;;;;;;;1999.90;999.90;;;;;;;29.28;30.84;98574.00;5090823;28;20198;-65
2021/06/15 10:00:16;;;;;;;1999.90;999.90;;;;;;;29.24;32.17;98573.28;5092424;28;20044;-65
2021/06/15 10:02:55;;;;;;;1999.90;999.90;;;;;;;29.47;30.95;98570.22;5084289;28;20064;-65
2021/06/15 10:05:23;;;;;;;1999.90;999.90;;;;;;;29.15;31.18;98573.94;5089461;28;20045;-65
2021/06/15 10:07:51;;;;;;;1999.90;999.90;;;;;;;27.55;30.83;98572.22;5087016;28;20056;-65
2021/06/15 10:10:19;;;;;;;1999.90;999.90;;;;;;;27.76;32.51;98571.81;5094416;28;20097;-65
2021/06/15 10:12:47;;;;;;;1999.90;999.90;;;;;;;27.34;32.67;98567.75;5089225;28;20040;-65
2021/06/15 10:15:15;;;;;;;1999.90;999.90;;;;;;;28.68;33.81;98565.75;5085513;28;20040;-65
2021/06/15 10:17:45;;;;;;;1999.90;999.90;;;;;;;27.80;32.38;98570.94;5093688;28;20101;-65
2021/06/15 10:20:17;;;;;;;1999.90;999.90;;;;;;;28.30;31.09;98564.19;5093640;28;20061;-65
2021/06/15 10:22:46;;;;;;;1999.90;999.90;;;;;;;29.32;34.27;98569.03;5091323;28;20097;-65
2021/06/15 10:25:14;;;;;;;1999.90;999.90;;;;;;;29.14;29.60;98564.56;5092511;28;20095;-65
2021/06/15 10:27:41;;;;;;;1999.90;999.90;;;;;;;29.91;30.67;98564.13;5085213;28;20056;-65
2021/06/15 10:30:11;;;;;;;1999.90;999.90;;;;;;;29.30;29.41;98560.94;5085121;28;20322;-65
2021/06/15 10:32:55;;;;;;;1999.90;999.90;;;;;;;29.42;30.98;98555.75;5075665;28;20052;-65
2021/06/15 10:35:55;;;;;;;1999.90;999.90;;;;;;;29.95;28.74;98564.03;5085717;28;20047;-65
2021/06/15 10:38:24;;;;;;;1999.90;999.90;;;;;;;30.01;32.09;98547.97;5092704;28;20040;-65
2021/06/15 10:40:53;;;;;;;1999.90;999.90;;;;;;;29.79;30.32;98556.31;5091551;28;20105;-65
2021/06/15 10:43:26;;;;;;;1999.90;999.90;;;;;;;30.11;29.57;98549.69;5087147;28;20093;-65
2021/06/15 10:45:57;;;;;;;1999.90;999.90;;;;;;;29.50;31.01;98552.22;5094720;28;20052;-65
2021/06/15 10:48:31;;;;;;;1999.90;999.90;;;;;;;27.97;33.09;98534.88;5087181;28;20044;-65
2021/06/15 10:51:00;;;;;;;1999.90;999.90;;;;;;;28.65;32.01;98533.31;5085124;28;20105;-65
2021/06/15 10:53:39;;;;;;;1999.90;999.90;;;;;;;29.60;29.61;98533.25;5093811;28;20040;-65
2021/06/15 10:56:17;;;;;;;1999.90;999.90;;;;;;;29.67;29.64;98535.06;5087812;28;20044;-65
2021/06/15 10:59:01;;;;;;;1999.90;999.90;;;;;;;29.30;30.12;98531.66;5088848;28;20654;-65
2021/06/15 11:01:33;;;;;;;1999.90;999.90;;;;;;;29.78;30.05;98532.72;5091460;28;20101;-65
2021/06/15 11:04:04;;;;;;;1999.90;999.90;;;;;;;30.72;29.22;98530.66;5093926;28;20052;-65
2021/06/15 11:06:32;;;;;;;1999.90;999.90;;;;;;;30.57;28.50;98540.16;5087852;28;20098;-65
2021/06/15 11:09:14;;;;;;;1999.90;999.90;;;;;;;31.35;28.00;98528.13;5091342;28;20041;-65
2021/06/15 11:11:42;;;;;;;1999.90;999.90;;;;;;;31.40;28.87;98538.16;5091722;28;20052;-65
2021/06/15 11:14:19;;;;;;;1999.90;999.90;;;;;;;30.55;27.59;98534.91;5090119;28;20052;-65
2021/06/15 11:16:50;;;;;;;1999.90;999.90;;;;;;;31.00;27.22;98524.47;5085123;28;20047;-65
2021/06/15 11:19:17;;;;;;;1999.90;999.90;;;;;;;31.04;25.49;98534.50;5085634;28;20047;-66
2021/06/15 11:21:47;;;;;;;1999.90;999.90;;;;;;;31.75;25.95;98527.47;5089637;28;20051;-65
2021/06/15 11:24:46;;;;;;;1999.90;999.90;;;;;;;31.63;26.67;98518.97;5082425;28;20048;-65
2021/06/15 11:27:30;;;;;;;1999.90;999.90;;;;;;;30.82;27.62;98517.28;5075541;28;20113;-65
2021/06/15 11:30:12;;;;;;;1999.90;999.90;;;;;;;29.31;29.65;98521.84;5080330;28;20048;-65
2021/06/15 11:32:53;;;;;;;;;;;;;;;29.81;28.95;98508.25;5091948;28;20094;-65